createdAt,value
2023-10-07T00:01:38.874Z,9.48
2023-10-07T00:04:11.237Z,9.45
2023-10-07T00:06:39.338Z,9.48
2023-10-07T00:09:11.829Z,9.44
2023-10-07T00:11:39.214Z,9.38
2023-10-07T00:14:11.280Z,9.36
2023-10-07T00:16:39.496Z,9.32
2023-10-07T00:19:08.482Z,9.41
2023-10-07T00:21:59.799Z,9.43
2023-10-07T00:24:36.394Z,9.37
2023-10-07T00:27:05.670Z,9.32
2023-10-07T00:29:52.874Z,9.26
2023-10-07T00:32:20.255Z,9.16
2023-10-07T00:34:48.014Z,9.11
2023-10-07T00:37:17.031Z,9.18
2023-10-07T00:39:44.780Z,9.21
2023-10-07T00:42:12.099Z,9.13
2023-10-07T00:44:40.481Z,9.13
2023-10-07T00:47:07.936Z,9.13
2023-10-07T00:49:51.848Z,9.12
2023-10-07T00:52:26.458Z,9.06
2023-10-07T00:55:01.536Z,9.07
2023-10-07T00:57:34.774Z,9.02
2023-10-07T01:00:24.548Z,9.04
2023-10-07T01:02:58.917Z,8.97
2023-10-07T01:05:34.413Z,8.89
2023-10-07T01:08:01.810Z,8.90
2023-10-07T01:10:33.128Z,8.94
2023-10-07T01:13:04.471Z,8.95
2023-10-07T01:15:35.910Z,8.89
2023-10-07T01:18:06.917Z,8.86
2023-10-07T01:20:54.930Z,8.88
2023-10-07T01:23:25.775Z,8.85
2023-10-07T01:25:54.591Z,8.80
2023-10-07T01:28:22.810Z,8.82
2023-10-07T01:31:09.113Z,8.87
2023-10-07T01:33:40.498Z,8.90
2023-10-07T01:36:17.378Z,8.90
2023-10-07T01:38:52.882Z,8.88
2023-10-07T01:41:29.116Z,8.88
2023-10-07T01:44:06.361Z,8.84
2023-10-07T01:46:36.321Z,8.76
2023-10-07T01:49:13.989Z,8.81
2023-10-07T01:51:45.878Z,8.80
2023-10-07T01:54:13.614Z,8.78
2023-10-07T01:56:41.043Z,8.78
2023-10-07T01:59:15.470Z,8.72
2023-10-07T02:02:00.184Z,8.76
2023-10-07T02:04:28.889Z,8.74
2023-10-07T02:06:57.726Z,8.76
2023-10-07T02:09:29.251Z,8.72
2023-10-07T02:12:13.148Z,8.69
2023-10-07T02:14:40.616Z,8.65
2023-10-07T02:17:08.647Z,8.64
2023-10-07T02:19:36.080Z,8.59
2023-10-07T02:22:04.948Z,8.54
2023-10-07T02:24:33.404Z,8.52
2023-10-07T02:27:08.154Z,8.52
2023-10-07T02:29:36.044Z,8.51
2023-10-07T02:32:15.284Z,8.50
2023-10-07T02:34:56.486Z,8.53
2023-10-07T02:37:27.468Z,8.56
2023-10-07T02:39:57.738Z,8.53
2023-10-07T02:42:32.706Z,8.51
2023-10-07T02:45:21.689Z,8.53
2023-10-07T02:47:51.489Z,8.56
2023-10-07T02:50:19.561Z,8.58
2023-10-07T02:52:48.364Z,8.59
2023-10-07T02:55:19.472Z,8.56
2023-10-07T02:57:56.639Z,8.54
2023-10-07T03:00:36.444Z,8.50
2023-10-07T03:03:21.033Z,8.46
2023-10-07T03:05:58.687Z,8.45
2023-10-07T03:08:41.687Z,8.45
2023-10-07T03:11:13.383Z,8.46
2023-10-07T03:13:41.027Z,8.46
2023-10-07T03:16:29.182Z,8.50
2023-10-07T03:18:58.135Z,8.49
2023-10-07T03:21:36.829Z,8.40
2023-10-07T03:24:09.800Z,8.42
2023-10-07T03:26:41.969Z,8.38
2023-10-07T03:29:09.465Z,8.37
2023-10-07T03:31:40.049Z,8.40
2023-10-07T03:34:13.346Z,8.40
2023-10-07T03:37:09.764Z,8.45
2023-10-07T03:39:55.673Z,8.53
2023-10-07T03:42:24.118Z,8.56
2023-10-07T03:44:51.665Z,8.51
2023-10-07T03:47:19.100Z,8.48
2023-10-07T03:49:54.662Z,8.49
2023-10-07T03:52:22.444Z,8.45
2023-10-07T03:54:49.981Z,8.42
2023-10-07T03:57:17.375Z,8.37
2023-10-07T03:59:46.886Z,8.35
2023-10-07T04:02:30.393Z,8.31
2023-10-07T04:05:11.066Z,8.35
2023-10-07T04:07:38.751Z,8.34
2023-10-07T04:10:21.470Z,8.37
2023-10-07T04:12:50.842Z,8.39
2023-10-07T04:15:18.456Z,8.39
2023-10-07T04:17:46.627Z,8.36
2023-10-07T04:20:20.090Z,8.35
2023-10-07T04:23:02.322Z,8.30
2023-10-07T04:25:32.271Z,8.30
2023-10-07T04:28:00.575Z,8.33
2023-10-07T04:30:40.818Z,8.41
2023-10-07T04:33:10.231Z,8.47
2023-10-07T04:35:39.029Z,8.50
2023-10-07T04:38:26.601Z,8.51
2023-10-07T04:41:15.369Z,8.54
2023-10-07T04:43:45.693Z,8.50
2023-10-07T04:46:25.713Z,8.46
2023-10-07T04:48:57.346Z,8.48
2023-10-07T04:51:33.752Z,8.52
2023-10-07T04:54:01.158Z,8.58
2023-10-07T04:56:28.995Z,8.58
2023-10-07T04:58:56.556Z,8.67
2023-10-07T05:01:32.310Z,8.71
2023-10-07T05:04:09.755Z,8.76
2023-10-07T05:06:38.683Z,8.81
2023-10-07T05:09:11.007Z,8.90
2023-10-07T05:11:42.416Z,8.91
2023-10-07T05:14:11.804Z,8.98
2023-10-07T05:16:39.817Z,8.93
2023-10-07T05:19:10.903Z,8.95
2023-10-07T05:21:41.175Z,8.93
2023-10-07T05:24:11.820Z,8.98
2023-10-07T05:26:42.465Z,8.99
2023-10-07T05:29:14.385Z,9.16
2023-10-07T05:31:44.160Z,9.24
2023-10-07T05:34:12.176Z,9.39
2023-10-07T05:36:40.316Z,9.53
2023-10-07T05:39:09.332Z,9.64
2023-10-07T05:41:40.704Z,9.71
2023-10-07T05:44:10.956Z,9.82
2023-10-07T05:46:38.673Z,9.89
2023-10-07T05:49:07.718Z,10.01
2023-10-07T05:51:37.532Z,10.10
2023-10-07T05:54:06.453Z,10.28
2023-10-07T05:56:33.805Z,10.41
2023-10-07T05:59:03.140Z,10.56
2023-10-07T06:01:35.227Z,10.65
2023-10-07T06:04:02.861Z,10.75
2023-10-07T06:06:32.997Z,10.80
2023-10-07T06:09:04.646Z,10.96
2023-10-07T06:11:33.394Z,11.02
2023-10-07T06:14:00.811Z,11.15
2023-10-07T06:16:30.787Z,11.21
2023-10-07T06:18:59.796Z,11.48
2023-10-07T06:21:29.105Z,11.71
2023-10-07T06:24:00.274Z,11.92
2023-10-07T06:26:31.664Z,12.03
2023-10-07T06:29:07.516Z,12.22
2023-10-07T06:31:35.395Z,12.23
2023-10-07T06:34:13.861Z,12.25
2023-10-07T06:36:41.782Z,12.27
2023-10-07T06:39:09.443Z,12.24
2023-10-07T06:41:36.926Z,12.24
2023-10-07T06:44:04.525Z,12.22
2023-10-07T06:46:41.861Z,12.20
2023-10-07T06:49:20.979Z,12.23
2023-10-07T06:51:52.585Z,12.30
2023-10-07T06:54:20.835Z,12.37
2023-10-07T06:56:51.339Z,12.40
2023-10-07T06:59:19.508Z,12.48
2023-10-07T07:01:46.978Z,12.56
2023-10-07T07:04:20.247Z,12.61
2023-10-07T07:06:58.651Z,12.59
2023-10-07T07:09:44.854Z,12.69
2023-10-07T07:12:13.484Z,12.88
2023-10-07T07:14:47.743Z,12.98
2023-10-07T07:17:31.016Z,13.09
2023-10-07T07:20:13.322Z,13.25
2023-10-07T07:22:47.824Z,13.41
2023-10-07T07:25:39.400Z,13.49
2023-10-07T07:28:07.913Z,13.70
2023-10-07T07:30:36.717Z,13.75
2023-10-07T07:33:16.604Z,13.80
2023-10-07T07:35:52.533Z,13.93
2023-10-07T07:38:24.081Z,14.16
2023-10-07T07:40:53.750Z,14.22
2023-10-07T07:43:21.394Z,14.25
2023-10-07T07:45:57.506Z,14.40
2023-10-07T07:48:26.705Z,14.58
2023-10-07T07:50:55.434Z,14.71
2023-10-07T07:53:22.885Z,14.83
2023-10-07T07:55:56.319Z,14.91
2023-10-07T07:58:24.505Z,14.92
2023-10-07T08:01:00.348Z,15.06
2023-10-07T08:03:27.974Z,15.22
2023-10-07T08:05:55.468Z,15.20
2023-10-07T08:08:30.216Z,15.34
2023-10-07T08:10:58.450Z,15.61
2023-10-07T08:13:26.064Z,15.82
2023-10-07T08:15:53.450Z,15.97
2023-10-07T08:18:30.242Z,16.39
2023-10-07T08:20:59.473Z,16.44
2023-10-07T08:23:30.757Z,16.31
2023-10-07T08:26:10.449Z,16.33
2023-10-07T08:28:41.650Z,16.24
2023-10-07T08:31:21.914Z,16.38
2023-10-07T08:33:55.206Z,16.33
2023-10-07T08:36:30.433Z,16.63
2023-10-07T08:39:00.350Z,16.97
2023-10-07T08:41:28.242Z,17.15
2023-10-07T08:44:16.821Z,17.48
2023-10-07T08:46:54.620Z,17.76
2023-10-07T08:49:28.424Z,17.95
2023-10-07T08:51:56.679Z,18.08
2023-10-07T08:54:27.865Z,18.34
2023-10-07T08:57:10.255Z,18.52
2023-10-07T08:59:38.433Z,18.69
2023-10-07T09:02:05.897Z,19.02
2023-10-07T09:04:33.472Z,19.15
2023-10-07T09:07:01.490Z,19.28
2023-10-07T09:09:33.989Z,19.42
2023-10-07T09:12:09.291Z,19.42
2023-10-07T09:14:36.677Z,19.27
2023-10-07T09:17:06.003Z,19.28
2023-10-07T09:19:35.557Z,19.46
2023-10-07T09:22:11.721Z,19.47
2023-10-07T09:24:45.158Z,19.43
2023-10-07T09:27:14.332Z,19.52
2023-10-07T09:29:45.655Z,19.80
2023-10-07T09:32:18.210Z,20.09
2023-10-07T09:34:45.542Z,20.28
2023-10-07T09:37:14.760Z,20.37
2023-10-07T09:39:46.043Z,20.34
2023-10-07T09:42:27.541Z,20.12
2023-10-07T09:45:16.815Z,20.09
2023-10-07T09:47:48.137Z,20.18
2023-10-07T09:50:25.176Z,20.10
2023-10-07T09:53:16.312Z,20.18
2023-10-07T09:55:58.508Z,20.09
2023-10-07T09:58:38.053Z,19.96
2023-10-07T10:01:29.748Z,20.15
2023-10-07T10:04:13.034Z,20.32
2023-10-07T10:07:01.701Z,20.48
2023-10-07T10:09:29.151Z,20.85
2023-10-07T10:12:19.399Z,21.02
2023-10-07T10:15:18.783Z,21.15
2023-10-07T10:17:54.501Z,21.38
2023-10-07T10:20:28.992Z,21.40
2023-10-07T10:23:00.707Z,21.43
2023-10-07T10:25:37.482Z,21.56
2023-10-07T10:28:05.143Z,21.59
2023-10-07T10:30:32.489Z,21.66
2023-10-07T10:33:01.959Z,21.78
2023-10-07T10:35:30.379Z,21.80
2023-10-07T10:37:58.333Z,21.73
2023-10-07T10:40:29.081Z,21.60
2023-10-07T10:42:56.404Z,21.86
2023-10-07T10:45:26.209Z,21.92
2023-10-07T10:47:54.627Z,22.29
2023-10-07T10:50:24.971Z,22.54
2023-10-07T10:52:55.429Z,22.68
2023-10-07T10:55:26.739Z,22.83
2023-10-07T10:57:54.103Z,22.74
2023-10-07T11:00:22.988Z,22.70
2023-10-07T11:02:50.978Z,22.64
2023-10-07T11:05:18.629Z,22.63
2023-10-07T11:07:48.220Z,22.68
2023-10-07T11:10:24.406Z,22.69
2023-10-07T11:12:55.797Z,22.81
2023-10-07T11:15:26.260Z,22.68
2023-10-07T11:17:59.651Z,22.87
2023-10-07T11:20:34.496Z,23.20
2023-10-07T11:23:04.076Z,23.34
2023-10-07T11:25:31.495Z,23.58
2023-10-07T11:27:59.976Z,23.69
2023-10-07T11:30:27.388Z,23.58
2023-10-07T11:32:56.121Z,23.74
2023-10-07T11:35:29.239Z,23.83
2023-10-07T11:37:59.802Z,23.68
2023-10-07T11:40:28.696Z,23.42
2023-10-07T11:42:57.781Z,23.32
2023-10-07T11:45:27.855Z,23.16
2023-10-07T11:47:58.492Z,23.14
2023-10-07T11:50:30.485Z,23.27
2023-10-07T11:52:58.278Z,23.45
2023-10-07T11:55:28.753Z,23.02
2023-10-07T11:57:56.080Z,22.82
2023-10-07T12:00:30.551Z,22.58
2023-10-07T12:03:01.499Z,22.38
2023-10-07T12:05:29.439Z,22.24
2023-10-07T12:07:57.544Z,22.23
2023-10-07T12:10:24.880Z,22.55
2023-10-07T12:12:53.294Z,22.67
2023-10-07T12:15:22.318Z,22.79
2023-10-07T12:17:52.467Z,22.98
2023-10-07T12:20:24.037Z,23.05
2023-10-07T12:22:54.301Z,23.11
2023-10-07T12:25:22.883Z,23.25
2023-10-07T12:27:50.717Z,23.12
2023-10-07T12:30:24.153Z,23.04
2023-10-07T12:32:51.560Z,22.92
2023-10-07T12:35:19.814Z,23.15
2023-10-07T12:37:50.097Z,23.32
2023-10-07T12:40:21.534Z,23.17
2023-10-07T12:42:53.389Z,23.29
2023-10-07T12:45:20.976Z,23.33
2023-10-07T12:47:52.768Z,22.98
2023-10-07T12:50:21.966Z,23.27
2023-10-07T12:52:50.064Z,23.46
2023-10-07T12:55:17.640Z,23.42
2023-10-07T12:57:45.379Z,23.67
2023-10-07T13:00:33.229Z,23.75
2023-10-07T13:03:03.472Z,23.65
2023-10-07T13:05:34.099Z,23.85
2023-10-07T13:08:01.419Z,23.82
2023-10-07T13:10:30.651Z,23.58
2023-10-07T13:12:59.292Z,23.84
2023-10-07T13:15:35.220Z,23.80
2023-10-07T13:18:03.854Z,23.90
2023-10-07T13:20:31.815Z,23.97
2023-10-07T13:22:59.517Z,23.94
2023-10-07T13:25:27.649Z,23.86
2023-10-07T13:27:59.177Z,23.90
2023-10-07T13:30:26.476Z,23.91
2023-10-07T13:32:58.250Z,23.92
2023-10-07T13:35:28.875Z,23.71
2023-10-07T13:37:58.216Z,23.91
2023-10-07T13:40:25.589Z,24.02
2023-10-07T13:42:54.079Z,24.15
2023-10-07T13:45:25.024Z,23.95
2023-10-07T13:47:52.952Z,24.12
2023-10-07T13:50:26.852Z,24.24
2023-10-07T13:53:00.580Z,24.27
2023-10-07T13:55:55.682Z,24.08
2023-10-07T13:58:23.127Z,24.06
2023-10-07T14:00:53.410Z,24.41
2023-10-07T14:03:22.324Z,24.79
2023-10-07T14:05:52.180Z,25.03
2023-10-07T14:08:25.294Z,25.63
2023-10-07T14:10:53.760Z,25.97
2023-10-07T14:13:21.253Z,26.14
2023-10-07T14:15:51.558Z,26.35
2023-10-07T14:18:22.852Z,25.47
2023-10-07T14:20:57.576Z,24.37
2023-10-07T14:23:25.590Z,23.51
2023-10-07T14:25:54.218Z,22.99
2023-10-07T14:28:22.229Z,22.65
2023-10-07T14:30:50.360Z,22.35
2023-10-07T14:33:18.127Z,22.17
2023-10-07T14:35:46.425Z,22.11
2023-10-07T14:38:14.199Z,21.96
2023-10-07T14:40:51.928Z,21.78
2023-10-07T14:43:20.245Z,21.71
2023-10-07T14:45:48.535Z,21.58
2023-10-07T14:48:17.210Z,21.47
2023-10-07T14:50:44.749Z,21.39
2023-10-07T14:53:14.881Z,21.34
2023-10-07T14:55:45.861Z,21.34
2023-10-07T14:58:16.413Z,21.27
2023-10-07T15:00:47.541Z,21.18
2023-10-07T15:03:18.170Z,21.09
2023-10-07T15:05:45.716Z,20.94
2023-10-07T15:08:14.428Z,20.75
2023-10-07T15:10:45.416Z,20.83
2023-10-07T15:13:13.009Z,20.86
2023-10-07T15:15:40.892Z,20.80
2023-10-07T15:18:08.250Z,20.77
2023-10-07T15:20:35.773Z,20.65
2023-10-07T15:23:03.586Z,20.56
2023-10-07T15:25:32.226Z,20.45
2023-10-07T15:27:59.588Z,20.33
2023-10-07T15:30:29.686Z,20.20
2023-10-07T15:32:57.029Z,20.13
2023-10-07T15:35:24.586Z,20.06
2023-10-07T15:37:52.812Z,19.94
2023-10-07T15:40:20.126Z,19.85
2023-10-07T15:42:50.055Z,19.83
2023-10-07T15:45:17.410Z,19.70
2023-10-07T15:47:45.042Z,19.58
2023-10-07T15:50:12.501Z,19.49
2023-10-07T15:52:41.071Z,19.28
2023-10-07T15:55:08.718Z,19.28
2023-10-07T15:57:36.185Z,19.24
2023-10-07T16:00:13.538Z,19.20
2023-10-07T16:02:41.196Z,19.28
2023-10-07T16:05:09.061Z,19.25
2023-10-07T16:07:39.545Z,19.38
2023-10-07T16:10:14.039Z,19.34
2023-10-07T16:12:42.832Z,19.41
2023-10-07T16:15:10.655Z,19.35
2023-10-07T16:17:41.561Z,19.29
2023-10-07T16:20:11.282Z,19.17
2023-10-07T16:22:38.893Z,19.15
2023-10-07T16:25:09.959Z,19.16
2023-10-07T16:27:37.309Z,19.19
2023-10-07T16:30:06.945Z,19.07
2023-10-07T16:32:34.687Z,18.94
2023-10-07T16:35:04.915Z,18.69
2023-10-07T16:37:33.267Z,18.55
2023-10-07T16:40:00.576Z,18.38
2023-10-07T16:42:29.452Z,18.36
2023-10-07T16:44:57.056Z,18.30
2023-10-07T16:47:24.670Z,18.33
2023-10-07T16:49:52.132Z,18.35
2023-10-07T16:52:20.001Z,18.38
2023-10-07T16:54:47.303Z,18.39
2023-10-07T16:57:14.746Z,18.27
2023-10-07T16:59:42.271Z,18.20
2023-10-07T17:02:11.889Z,18.13
2023-10-07T17:04:40.613Z,18.04
2023-10-07T17:07:07.987Z,18.04
2023-10-07T17:09:35.702Z,18.11
2023-10-07T17:12:03.206Z,18.24
2023-10-07T17:14:33.078Z,18.26
2023-10-07T17:17:00.716Z,18.27
2023-10-07T17:19:29.286Z,18.29
2023-10-07T17:21:56.649Z,18.34
2023-10-07T17:24:24.040Z,18.34
2023-10-07T17:26:51.808Z,18.42
2023-10-07T17:29:19.171Z,18.49
2023-10-07T17:31:46.531Z,18.57
2023-10-07T17:34:13.872Z,18.68
2023-10-07T17:36:41.179Z,18.78
2023-10-07T17:39:12.515Z,18.77
2023-10-07T17:41:40.287Z,18.83
2023-10-07T17:44:09.499Z,18.84
2023-10-07T17:46:36.892Z,18.80
2023-10-07T17:49:04.204Z,18.87
2023-10-07T17:51:31.498Z,18.84
2023-10-07T17:53:58.893Z,18.85
2023-10-07T17:56:26.372Z,18.85
2023-10-07T17:58:53.745Z,18.85
2023-10-07T18:01:21.031Z,18.97
2023-10-07T18:03:49.124Z,19.08
2023-10-07T18:06:16.481Z,19.11
2023-10-07T18:08:44.520Z,19.02
2023-10-07T18:11:12.799Z,19.07
2023-10-07T18:13:40.243Z,19.03
2023-10-07T18:16:08.484Z,18.90
2023-10-07T18:18:38.270Z,18.81
2023-10-07T18:21:07.169Z,18.87
2023-10-07T18:23:38.077Z,18.96
2023-10-07T18:26:05.557Z,19.12
2023-10-07T18:28:33.049Z,19.10
2023-10-07T18:31:02.628Z,19.18
2023-10-07T18:33:30.410Z,19.31
2023-10-07T18:35:58.856Z,19.25
2023-10-07T18:38:26.859Z,19.24
2023-10-07T18:40:54.192Z,19.31
2023-10-07T18:43:21.468Z,19.30
2023-10-07T18:45:53.481Z,19.33
2023-10-07T18:48:20.863Z,19.23
2023-10-07T18:50:49.324Z,19.32
2023-10-07T18:53:16.783Z,19.37
2023-10-07T18:55:44.089Z,19.38
2023-10-07T18:58:13.604Z,19.31
2023-10-07T19:00:40.916Z,19.37
2023-10-07T19:03:08.412Z,19.36
2023-10-07T19:05:35.909Z,19.28
2023-10-07T19:08:03.357Z,19.26
2023-10-07T19:10:31.414Z,19.30
2023-10-07T19:13:00.205Z,19.51
2023-10-07T19:15:28.604Z,19.52
2023-10-07T19:17:56.161Z,19.57
2023-10-07T19:20:24.790Z,19.54
2023-10-07T19:22:52.211Z,19.42
2023-10-07T19:25:19.581Z,19.39
2023-10-07T19:27:46.968Z,19.31
2023-10-07T19:30:15.262Z,19.28
2023-10-07T19:32:43.427Z,19.22
2023-10-07T19:35:11.782Z,19.14
2023-10-07T19:37:39.877Z,19.14
2023-10-07T19:40:08.064Z,19.07
2023-10-07T19:42:35.441Z,19.16
2023-10-07T19:45:02.829Z,19.21
2023-10-07T19:47:30.235Z,19.24
2023-10-07T19:49:57.651Z,19.15
2023-10-07T19:52:24.969Z,19.12
2023-10-07T19:54:53.499Z,19.09
2023-10-07T19:57:21.264Z,19.03
2023-10-07T19:59:48.909Z,18.95
2023-10-07T20:02:17.279Z,19.02
2023-10-07T20:04:45.753Z,19.24
2023-10-07T20:07:14.709Z,19.34
2023-10-07T20:09:42.181Z,19.40
2023-10-07T20:12:10.513Z,19.27
2023-10-07T20:14:37.957Z,19.33
2023-10-07T20:17:05.631Z,19.17
2023-10-07T20:19:33.122Z,19.13
2023-10-07T20:22:00.438Z,19.00
2023-10-07T20:24:27.791Z,19.03
2023-10-07T20:26:55.313Z,19.07
2023-10-07T20:29:22.664Z,19.07
2023-10-07T20:31:50.034Z,19.28
2023-10-07T20:34:17.823Z,19.25
2023-10-07T20:36:45.090Z,19.35
2023-10-07T20:39:12.796Z,19.35
2023-10-07T20:41:41.795Z,19.33
2023-10-07T20:44:09.340Z,19.29
2023-10-07T20:46:36.940Z,19.13
2023-10-07T20:49:04.854Z,18.91
2023-10-07T20:51:32.167Z,18.76
2023-10-07T20:54:00.802Z,18.74
2023-10-07T20:56:28.495Z,18.65
2023-10-07T20:58:55.870Z,18.72
2023-10-07T21:01:24.963Z,18.76
2023-10-07T21:03:53.888Z,18.73
2023-10-07T21:06:21.834Z,19.08
2023-10-07T21:08:51.475Z,19.05
2023-10-07T21:11:22.271Z,19.24
2023-10-07T21:13:49.994Z,19.35
2023-10-07T21:16:17.501Z,19.55
2023-10-07T21:18:46.076Z,19.55
2023-10-07T21:21:14.049Z,19.65
2023-10-07T21:23:44.563Z,19.64
2023-10-07T21:26:17.820Z,19.62
2023-10-07T21:28:45.365Z,19.74
2023-10-07T21:31:12.760Z,19.73
2023-10-07T21:33:40.051Z,19.60
2023-10-07T21:36:07.947Z,19.65
2023-10-07T21:38:36.119Z,19.61
2023-10-07T21:41:03.828Z,19.63
2023-10-07T21:43:31.275Z,19.51
2023-10-07T21:46:00.035Z,19.57
2023-10-07T21:48:27.547Z,19.55
2023-10-07T21:50:55.254Z,19.62
2023-10-07T21:53:23.260Z,19.50
2023-10-07T21:55:50.583Z,19.57
2023-10-07T21:58:17.902Z,19.37
2023-10-07T22:00:47.209Z,19.28
2023-10-07T22:03:17.761Z,19.26
2023-10-07T22:05:47.816Z,19.28
2023-10-07T22:08:15.976Z,19.33
2023-10-07T22:10:45.488Z,19.35
2023-10-07T22:13:18.972Z,19.31
2023-10-07T22:15:53.232Z,19.37
2023-10-07T22:18:20.968Z,19.30
2023-10-07T22:20:50.910Z,19.31
2023-10-07T22:23:20.731Z,19.29
2023-10-07T22:25:51.991Z,19.25
2023-10-07T22:28:22.664Z,19.20
2023-10-07T22:30:56.877Z,19.16
2023-10-07T22:33:26.475Z,19.07
2023-10-07T22:36:00.829Z,19.02
2023-10-07T22:38:28.340Z,19.11
2023-10-07T22:40:59.734Z,19.01
2023-10-07T22:43:36.140Z,19.02
2023-10-07T22:46:05.260Z,19.03
2023-10-07T22:48:36.523Z,19.02
2023-10-07T22:51:24.592Z,19.01
2023-10-07T22:54:02.317Z,19.10
2023-10-07T22:56:32.834Z,19.07
2023-10-07T22:59:05.871Z,19.03
2023-10-07T23:01:36.845Z,19.00
2023-10-07T23:04:34.005Z,18.98
2023-10-07T23:07:01.720Z,19.04
2023-10-07T23:09:37.477Z,19.01
2023-10-07T23:12:16.366Z,18.88
2023-10-07T23:14:46.148Z,18.76
2023-10-07T23:17:23.085Z,18.80
2023-10-07T23:19:51.875Z,18.86
2023-10-07T23:22:21.975Z,18.79
2023-10-07T23:24:53.605Z,18.85
2023-10-07T23:27:24.033Z,18.81
2023-10-07T23:29:56.355Z,18.88
2023-10-07T23:32:23.929Z,18.84
2023-10-07T23:34:54.795Z,18.98
2023-10-07T23:37:25.900Z,19.02
2023-10-07T23:39:58.618Z,18.94
2023-10-07T23:42:26.575Z,18.87
2023-10-07T23:44:57.573Z,18.87
2023-10-07T23:47:25.074Z,18.86
2023-10-07T23:49:56.053Z,18.84
2023-10-07T23:52:26.744Z,18.82
2023-10-07T23:55:00.292Z,18.77
2023-10-07T23:57:31.230Z,18.69
2023-10-07T23:59:59.191Z,18.61
